Airfield :
LOGIN :

Register | Disclaimer

   EN    FR    IT 

 










Legend :    VFR   Marginal VFR   IFR   Intensive IFR   Very Intensive IFR
Visi :
Ceiling :
>= 8 km
>= 3000ft
5 to 8 km
1000 to 3000 ft
1500m to 5 km
500 to 1000 ft
800 to 1500m
200 to 500 ft
< 800m
< 200 ft
Symbols :   Thunderstorms  Fog  Heavy snow  Heavy precipitations  Wind > 20 kt
SIGMETs :     Misc.  Thunderstorms  Icing  Turbulence  Mountain Waves  Volcanic Ashes







- Airport Elevation : 83 ft
- IATA code : LHR
- Download approach charts


EGLL - London Heathrow

CURRENT METAR :
  • 190650Z VRB02KT 2200 BR BKN004 15/14 Q1006 NOSIG

EXPIRED METARs :
  • 190620Z AUTO 08004KT 2100 BR OVC004 15/14 Q1006
  • 190550Z AUTO 09003KT 1800 BR BKN005 BKN008 15/14 Q1006 NOSIG
  • 190520Z AUTO 08002KT 1900 BR BKN005 15/14 Q1007
  • 190450Z AUTO 09004KT 1900 BR BKN005 15/14 Q1007 NOSIG
  • 190420Z AUTO 10003KT 2000 -RADZ BKN006 15/14 Q1007 NOSIG

TAF TAF EGLL
Valid from the 19 at 06:00 until the 20 at 12:00 UTC


190502Z 1906/2012 12005KT 2000 BR SCT006 BKN040
TEMPO 1906/1909 BKN006
PROB30
TEMPO 1906/1908 1400 BKN004
BECMG 1909/1912 8000 NSW
PROB40
TEMPO 1909/1916 SHRA BKN012
BECMG 1912/1915 19010KT 9999
TEMPO 1920/2012 20015G25KT 6000 RA BKN012
No reported NOTAMs for that airfield.



MET'MAP, your aeronautical weather chart ! - Copyright ORBIFLY December 2007 - Disclaimer

ORBIFLY MET'MAP TEAM :

Programming & Development : Alexandra Zaïnal
Concept & Development : Baudouin d'Aumeries
Co-Development & Prog : Marc-Olivier Méhu
Technical & hardware support : Manuel Goepfert

Contact : metmap@orbifly.com




SOURCES & CREDITS :

   NOAA